Time;durP1;ratioP1;P1;durP2;ratioP2;P2;SDS_P1;SDS_P2;PMS_P1;PMS_P2;Temp;Humidity;BMP_temperature;BMP_pressure;BME280_temperature;BME280_humidity;BME280_pressure;Samples;Min_cycle;Max_cycle;Signal;HPM_P1;HPM_P2
2022/12/18 00:01:31;;;;;;;62.30;55.60;;;;;;;-5.55;94.44;99223.78;105393;1321;22206;-83
2022/12/18 00:04:02;;;;;;;66.60;59.40;;;;;;;-5.53;94.72;99229.30;105065;1326;22224;-83
2022/12/18 00:06:32;;;;;;;66.70;54.30;;;;;;;-5.51;94.60;99234.85;105096;1322;22141;-83
2022/12/18 00:09:01;;;;;;;63.60;56.70;;;;;;;-5.52;94.46;99240.98;105231;1323;22353;-83
2022/12/18 00:11:30;;;;;;;64.00;54.20;;;;;;;-5.50;94.58;99240.30;105370;1322;22232;-83
2022/12/18 00:13:59;;;;;;;65.10;58.10;;;;;;;-5.44;94.41;99249.05;105577;1321;22202;-83
2022/12/18 00:16:29;;;;;;;68.70;59.30;;;;;;;-5.47;94.41;99250.29;105571;1321;22785;-83
2022/12/18 00:18:59;;;;;;;66.90;56.70;;;;;;;-5.46;94.23;99255.02;105579;1321;22225;-83
2022/12/18 00:21:29;;;;;;;66.40;55.20;;;;;;;-5.50;94.27;99255.02;105603;1317;22452;-83
2022/12/18 00:23:59;;;;;;;64.40;54.60;;;;;;;-5.49;94.19;99255.93;105387;1322;22370;-83
2022/12/18 00:26:30;;;;;;;66.70;57.30;;;;;;;-5.48;94.25;99255.91;105578;1321;22222;-83
2022/12/18 00:29:01;;;;;;;69.50;59.20;;;;;;;-5.53;94.34;99255.48;105359;1323;22175;-83
2022/12/18 00:31:30;;;;;;;64.80;56.70;;;;;;;-5.53;94.28;99260.04;105796;1316;22055;-83
2022/12/18 00:34:01;;;;;;;71.40;58.00;;;;;;;-5.53;94.24;99261.12;105393;1323;22975;-83
2022/12/18 00:36:33;;;;;;;62.50;52.70;;;;;;;-5.55;94.21;99264.95;105096;1323;22750;-83
2022/12/18 00:39:03;;;;;;;65.60;55.50;;;;;;;-5.52;94.27;99266.08;105755;1314;22129;-83
2022/12/18 00:44:18;;;;;;;64.40;54.40;;;;;;;-5.50;94.32;99265.70;105823;1313;22185;-82
2022/12/18 00:46:47;;;;;;;60.30;53.70;;;;;;;-5.49;94.30;99270.32;105535;1322;22120;-83
2022/12/18 00:49:17;;;;;;;59.50;52.20;;;;;;;-5.48;94.27;99278.30;105562;1323;22205;-82
2022/12/18 00:51:47;;;;;;;61.20;54.30;;;;;;;-5.46;94.26;99289.63;105252;1324;22214;-83
2022/12/18 00:54:16;;;;;;;58.60;52.40;;;;;;;-5.40;94.47;99290.42;105252;1326;22210;-82
2022/12/18 00:56:44;;;;;;;69.00;59.40;;;;;;;-5.38;94.18;99288.22;105335;1326;22398;-82
2022/12/18 00:59:17;;;;;;;65.70;57.90;;;;;;;-5.38;94.15;99292.83;105514;1321;22234;-82
2022/12/18 01:01:46;;;;;;;62.60;55.90;;;;;;;-5.40;94.20;99299.19;105268;1327;22190;-82
2022/12/18 01:04:15;;;;;;;71.90;57.90;;;;;;;-5.39;94.38;99298.73;105367;1323;22219;-82
2022/12/18 01:06:45;;;;;;;74.10;61.10;;;;;;;-5.34;94.13;99302.39;105322;1325;22175;-83
2022/12/18 01:09:13;;;;;;;66.90;56.40;;;;;;;-5.31;94.23;99308.92;105780;1313;22215;-83
2022/12/18 01:11:41;;;;;;;70.80;61.60;;;;;;;-5.32;94.19;99309.71;105216;1321;22273;-83
2022/12/18 01:14:11;;;;;;;65.70;58.70;;;;;;;-5.32;94.15;99313.35;105131;1325;22350;-82
2022/12/18 01:16:39;;;;;;;62.40;54.50;;;;;;;-5.35;94.09;99308.46;105263;1324;22948;-81
2022/12/18 01:19:07;;;;;;;56.70;48.60;;;;;;;-5.36;93.88;99312.23;105919;1312;22198;-82
2022/12/18 01:21:35;;;;;;;59.90;52.30;;;;;;;-5.35;93.86;99310.59;105510;1321;22829;-81
2022/12/18 01:24:06;;;;;;;63.20;56.50;;;;;;;-5.33;94.14;99313.88;105898;1314;22188;-82
2022/12/18 01:26:34;;;;;;;58.90;51.90;;;;;;;-5.32;93.94;99318.45;105817;1316;22208;-81
2022/12/18 01:29:02;;;;;;;62.80;55.70;;;;;;;-5.36;93.90;99321.10;105149;1321;22167;-82
2022/12/18 01:31:33;;;;;;;57.50;51.00;;;;;;;-5.37;93.97;99322.51;105104;1321;22217;-81
2022/12/18 01:34:04;;;;;;;56.00;49.90;;;;;;;-5.37;93.98;99318.96;105075;1321;22934;-83
2022/12/18 01:36:38;;;;;;;57.50;51.40;;;;;;;-5.35;93.87;99321.23;105297;1322;22356;-83
2022/12/18 01:39:11;;;;;;;59.30;52.80;;;;;;;-5.35;93.66;99322.06;105305;1322;22209;-82
2022/12/18 01:44:56;;;;;;;60.30;53.50;;;;;;;-5.45;93.62;99312.18;105380;1309;22224;-83
2022/12/18 01:47:36;;;;;;;56.40;50.50;;;;;;;-5.43;93.82;99315.89;105276;1325;22212;-83
2022/12/18 01:50:15;;;;;;;59.60;53.40;;;;;;;-5.41;93.79;99318.86;105476;1321;22203;-83
2022/12/18 01:52:47;;;;;;;54.00;48.30;;;;;;;-5.40;93.83;99322.99;105375;1321;22211;-82
2022/12/18 01:55:18;;;;;;;54.70;48.90;;;;;;;-5.39;93.69;99332.02;105099;1323;22202;-82
2022/12/18 01:57:48;;;;;;;55.00;48.40;;;;;;;-5.37;93.82;99334.96;105504;1321;22090;-82
2022/12/18 02:00:20;;;;;;;49.60;44.40;;;;;;;-5.35;93.74;99340.02;105239;1322;22859;-82
2022/12/18 02:02:48;;;;;;;57.60;51.40;;;;;;;-5.32;93.78;99344.19;105264;1324;23476;-83
2022/12/18 02:05:22;;;;;;;53.80;47.30;;;;;;;-5.30;93.64;99347.34;105229;1324;22070;-82
2022/12/18 02:07:50;;;;;;;;;;;;;;;-5.32;93.49;99348.05;105220;1322;22348;-82
2022/12/18 02:10:28;;;;;;;54.80;45.70;;;;;;;-5.37;93.61;99347.00;105224;1321;22199;-83
2022/12/18 02:13:09;;;;;;;52.70;46.50;;;;;;;-5.35;93.49;99351.91;105227;1323;22200;-82
2022/12/18 02:15:47;;;;;;;57.00;47.50;;;;;;;-5.33;93.55;99355.71;105372;1321;22826;-83
2022/12/18 02:18:45;;;;;;;57.20;51.30;;;;;;;-5.31;93.62;99357.79;105018;1321;22185;-82
2022/12/18 02:21:45;;;;;;;67.80;55.20;;;;;;;-5.30;93.46;99369.95;105403;1321;22258;-83
2022/12/18 02:24:25;;;;;;;57.10;50.50;;;;;;;-5.42;93.13;99359.83;105246;1322;22654;-82
2022/12/18 02:26:59;;;;;;;60.60;52.10;;;;;;;-5.37;93.30;99380.14;105417;1321;22210;-83
2022/12/18 02:29:46;;;;;;;57.90;51.20;;;;;;;-5.34;93.36;99384.81;105214;1324;22241;-82
2022/12/18 02:32:31;;;;;;;62.80;53.40;;;;;;;-5.33;93.50;99385.94;105415;1321;22286;-83
2022/12/18 02:35:04;;;;;;;69.00;57.40;;;;;;;-5.35;93.56;99390.06;105263;1321;22213;-83
2022/12/18 02:37:34;;;;;;;64.20;55.00;;;;;;;-5.37;93.43;99388.21;105230;1324;22209;-84
2022/12/18 02:40:05;;;;;;;61.50;53.40;;;;;;;-5.40;93.46;99393.39;105236;1321;22321;-83
2022/12/18 02:42:33;;;;;;;60.50;53.00;;;;;;;-5.41;93.33;99383.80;105006;1321;22199;-83
2022/12/18 02:45:02;;;;;;;62.30;55.50;;;;;;;-5.41;93.39;99380.19;105263;1321;22263;-84
2022/12/18 02:47:38;;;;;;;67.10;57.50;;;;;;;-5.44;93.73;99391.02;105281;1321;22788;-84
2022/12/18 02:50:09;;;;;;;67.40;59.40;;;;;;;-5.43;93.66;99397.52;105228;1320;22125;-82
2022/12/18 02:53:29;;;;;;;61.30;54.70;;;;;;;-5.45;93.74;99401.65;105414;1322;22213;-83
2022/12/18 02:56:14;;;;;;;64.20;55.80;;;;;;;-5.41;93.74;99405.08;105302;1321;22187;-83
2022/12/18 02:58:57;;;;;;;65.50;57.60;;;;;;;-5.40;93.74;99412.09;105633;1314;22360;-83
2022/12/18 03:02:10;;;;;;;63.00;56.20;;;;;;;-5.37;93.84;99414.23;105383;1322;22209;-84
2022/12/18 03:05:02;;;;;;;67.30;58.70;;;;;;;-5.36;93.87;99415.24;105226;1321;22242;-83
2022/12/18 03:07:45;;;;;;;63.00;54.40;;;;;;;-5.40;93.91;99421.43;105678;1314;22200;-83
2022/12/18 03:10:20;;;;;;;60.10;53.50;;;;;;;-5.39;93.93;99423.77;105144;1324;22276;-83
2022/12/18 03:12:54;;;;;;;60.80;53.70;;;;;;;-5.38;94.04;99427.28;105310;1315;22635;-83
2022/12/18 03:15:28;;;;;;;62.30;55.60;;;;;;;-5.37;94.09;99429.00;105408;1321;23034;-82
2022/12/18 03:18:07;;;;;;;69.70;57.50;;;;;;;-5.37;94.02;99430.15;105664;1314;22085;-82
2022/12/18 03:20:39;;;;;;;63.60;56.30;;;;;;;-5.38;93.94;99429.92;105093;1322;22240;-82
2022/12/18 03:23:12;;;;;;;63.10;53.10;;;;;;;-5.39;94.03;99433.69;105893;1314;23004;-84
2022/12/18 03:25:43;;;;;;;59.80;53.40;;;;;;;-5.35;93.95;99434.77;105278;1321;22201;-85
2022/12/18 03:28:19;;;;;;;61.70;54.60;;;;;;;-5.32;94.18;99432.83;105264;1321;22858;-83
2022/12/18 03:30:59;;;;;;;63.10;55.70;;;;;;;-5.29;94.01;99433.34;105237;1321;22206;-83
2022/12/18 03:33:38;;;;;;;64.60;55.80;;;;;;;-5.28;94.03;99431.52;105544;1321;22255;-83
2022/12/18 03:36:06;;;;;;;57.30;51.00;;;;;;;-5.34;93.78;99436.14;105464;1315;22192;-82
2022/12/18 03:38:35;;;;;;;58.90;50.10;;;;;;;-5.34;93.95;99440.77;105267;1321;22915;-83
2022/12/18 03:41:15;;;;;;;60.00;53.50;;;;;;;-5.31;93.96;99442.80;105228;1321;23512;-83
2022/12/18 03:44:11;;;;;;;64.90;55.20;;;;;;;-5.30;93.98;99439.60;105271;1321;22190;-81
2022/12/18 03:46:54;;;;;;;67.30;57.40;;;;;;;-5.33;94.09;99443.05;105373;1321;22219;-83
2022/12/18 03:49:39;;;;;;;68.10;58.60;;;;;;;-5.37;94.10;99446.31;105812;1314;22206;-83
2022/12/18 03:52:17;;;;;;;65.20;54.70;;;;;;;-5.37;94.46;99448.23;105321;1321;22226;-82
2022/12/18 03:54:46;;;;;;;61.40;54.70;;;;;;;-5.32;94.31;99455.73;105811;1315;22214;-82
2022/12/18 03:57:19;;;;;;;60.20;52.70;;;;;;;-5.30;94.18;99454.52;105472;1321;22207;-83
2022/12/18 03:59:52;;;;;;;58.60;52.20;;;;;;;-5.31;94.11;99452.14;105498;1314;22199;-82
2022/12/18 04:02:23;;;;;;;60.80;53.60;;;;;;;-5.33;94.21;99456.77;105360;1321;22195;-83
2022/12/18 04:04:56;;;;;;;71.40;62.30;;;;;;;-5.36;94.07;99463.02;105234;1321;22204;-82
2022/12/18 04:07:25;;;;;;;65.90;56.40;;;;;;;-5.39;93.92;99467.35;105631;1309;22231;-83
2022/12/18 04:09:56;;;;;;;56.60;50.20;;;;;;;-5.41;94.05;99468.95;105633;1314;22262;-82
2022/12/18 04:12:26;;;;;;;56.40;50.20;;;;;;;-5.41;94.07;99471.44;105200;1321;22349;-83
2022/12/18 04:14:54;;;;;;;59.00;51.30;;;;;;;-5.41;94.05;99470.70;105562;1314;22181;-82
2022/12/18 04:17:23;;;;;;;62.50;55.80;;;;;;;-5.37;94.28;99473.33;105783;1300;22222;-84
2022/12/18 04:19:51;;;;;;;65.60;58.40;;;;;;;-5.39;93.89;99480.15;105465;1317;22210;-82
2022/12/18 04:22:20;;;;;;;63.90;56.40;;;;;;;-5.44;94.10;99481.34;105842;1299;22238;-83
2022/12/18 04:24:52;;;;;;;60.10;53.60;;;;;;;-5.45;94.04;99486.60;105427;1321;22268;-84
2022/12/18 04:27:28;;;;;;;60.60;54.20;;;;;;;-5.46;93.99;99491.67;105526;1314;22901;-82
2022/12/18 04:29:59;;;;;;;58.50;52.20;;;;;;;-5.44;94.08;99497.85;105727;1321;22109;-81
2022/12/18 04:32:27;;;;;;;63.10;56.30;;;;;;;-5.40;94.15;99495.62;105449;1318;22197;-81
2022/12/18 04:34:55;;;;;;;75.00;58.50;;;;;;;-5.36;94.23;99499.98;105528;1324;22119;-86
2022/12/18 04:37:23;;;;;;;67.10;58.30;;;;;;;-5.39;94.07;99505.37;105477;1321;22208;-86
2022/12/18 04:39:51;;;;;;;64.70;57.60;;;;;;;-5.42;94.13;99509.49;105321;1322;22101;-86
2022/12/18 04:42:25;;;;;;;67.40;58.00;;;;;;;-5.44;94.18;99511.82;105441;1321;22913;-86
2022/12/18 04:44:53;;;;;;;65.40;56.80;;;;;;;-5.44;94.06;99515.66;105554;1317;22121;-87
2022/12/18 04:47:46;;;;;;;67.00;59.80;;;;;;;-5.42;94.08;99522.11;105347;1322;22141;-85
2022/12/18 04:50:14;;;;;;;73.00;61.60;;;;;;;-5.42;94.17;99527.27;105500;1321;22218;-84
2022/12/18 04:52:42;;;;;;;69.30;61.70;;;;;;;-5.45;94.10;99528.04;105263;1321;22252;-86
2022/12/18 04:55:10;;;;;;;75.00;62.10;;;;;;;-5.48;94.25;99533.40;105659;1314;22162;-85
2022/12/18 04:57:38;;;;;;;72.80;59.30;;;;;;;-5.48;94.43;99530.80;105505;1321;22269;-86
2022/12/18 05:00:07;;;;;;;65.80;55.70;;;;;;;-5.45;94.47;99538.57;105398;1316;22236;-86
2022/12/18 05:02:35;;;;;;;69.80;55.60;;;;;;;-5.40;94.48;99542.38;105616;1302;22798;-87
2022/12/18 05:05:04;;;;;;;63.20;54.20;;;;;;;-5.33;94.40;99545.02;105990;1299;22187;-85
2022/12/18 05:07:32;;;;;;;70.10;59.80;;;;;;;-5.29;94.16;99545.86;105391;1314;22163;-87
2022/12/18 05:10:00;;;;;;;70.80;61.70;;;;;;;-5.28;94.37;99548.19;105414;1300;22180;-84
2022/12/18 05:12:31;;;;;;;75.90;63.50;;;;;;;-5.27;94.41;99545.88;105282;1321;22195;-86
2022/12/18 05:14:59;;;;;;;70.80;60.30;;;;;;;-5.28;94.63;99549.25;105328;1321;22211;-86
2022/12/18 05:17:27;;;;;;;74.90;59.40;;;;;;;-5.29;94.43;99545.84;105662;1313;22162;-86
2022/12/18 05:19:55;;;;;;;71.30;59.20;;;;;;;-5.28;94.39;99545.05;105997;1300;22092;-86
2022/12/18 05:22:23;;;;;;;92.50;65.40;;;;;;;-5.26;94.12;99542.52;105420;1321;23010;-86
2022/12/18 05:24:50;;;;;;;95.40;69.10;;;;;;;-5.24;94.20;99544.95;105497;1321;22835;-86
2022/12/18 05:27:20;;;;;;;79.10;66.30;;;;;;;-5.23;94.23;99548.94;105818;1313;22315;-87
2022/12/18 05:29:48;;;;;;;76.60;67.40;;;;;;;-5.24;94.27;99553.90;105276;1321;22207;-86
2022/12/18 05:32:21;;;;;;;76.80;63.60;;;;;;;-5.30;94.03;99559.94;105394;1315;22224;-87
2022/12/18 05:34:49;;;;;;;68.40;60.50;;;;;;;-5.37;94.18;99561.90;105552;1321;22195;-86
2022/12/18 05:37:18;;;;;;;77.20;67.10;;;;;;;-5.38;94.12;99563.93;105508;1321;22704;-86
2022/12/18 05:39:45;;;;;;;80.20;70.00;;;;;;;-5.39;94.13;99570.91;105968;1313;22214;-85
2022/12/18 05:42:14;;;;;;;81.80;69.00;;;;;;;-5.45;94.22;99565.69;105553;1317;22218;-86
2022/12/18 05:44:43;;;;;;;78.20;63.00;;;;;;;-5.48;94.44;99567.55;105545;1321;22249;-85
2022/12/18 05:47:11;;;;;;;68.40;59.70;;;;;;;-5.45;94.41;99569.20;105543;1316;23032;-85
2022/12/18 05:49:39;;;;;;;65.20;58.00;;;;;;;-5.45;94.32;99571.27;105560;1321;23022;-86
2022/12/18 05:52:07;;;;;;;71.40;60.90;;;;;;;-5.42;94.46;99575.53;105121;1321;22920;-85
2022/12/18 05:54:35;;;;;;;71.30;62.30;;;;;;;-5.39;94.57;99577.33;105257;1321;22205;-85
2022/12/18 05:57:03;;;;;;;75.80;62.50;;;;;;;-5.37;94.47;99579.27;105248;1321;22235;-85
2022/12/18 05:59:31;;;;;;;82.60;69.00;;;;;;;-5.37;94.42;99577.31;105397;1322;22254;-86
2022/12/18 06:01:59;;;;;;;68.60;61.20;;;;;;;-5.40;94.40;99577.08;105631;1321;22185;-85
2022/12/18 06:04:30;;;;;;;76.70;64.10;;;;;;;-5.40;94.30;99582.38;105208;1321;22209;-86
2022/12/18 06:06:59;;;;;;;75.40;62.80;;;;;;;-5.41;94.24;99584.79;105468;1321;22117;-84
2022/12/18 06:09:28;;;;;;;76.20;64.30;;;;;;;-5.44;94.26;99585.56;105413;1321;22202;-85
2022/12/18 06:11:56;;;;;;;70.50;59.60;;;;;;;-5.47;94.33;99590.90;105284;1321;22223;-85
2022/12/18 06:14:24;;;;;;;76.10;60.80;;;;;;;-5.52;94.24;99597.01;105857;1315;22160;-86
2022/12/18 06:16:52;;;;;;;69.60;59.80;;;;;;;-5.56;94.23;99600.06;105873;1315;22174;-87
2022/12/18 06:19:20;;;;;;;67.40;58.20;;;;;;;-5.57;94.34;99602.91;105609;1321;22949;-86
2022/12/18 06:21:50;;;;;;;73.80;63.10;;;;;;;-5.54;94.43;99603.72;105287;1321;22217;-86
2022/12/18 06:24:17;;;;;;;80.60;66.50;;;;;;;-5.56;94.47;99605.85;105978;1299;22214;-86
2022/12/18 06:26:45;;;;;;;87.90;67.70;;;;;;;-5.57;94.49;99604.84;105414;1322;22242;-86
2022/12/18 06:29:14;;;;;;;77.50;63.90;;;;;;;-5.58;94.35;99611.83;105597;1321;22932;-86
2022/12/18 06:31:41;;;;;;;71.30;60.70;;;;;;;-5.61;94.32;99614.54;105964;1314;22347;-86
2022/12/18 06:34:10;;;;;;;88.80;65.00;;;;;;;-5.60;94.19;99617.76;105434;1321;22207;-87
2022/12/18 06:36:38;;;;;;;83.20;69.00;;;;;;;-5.58;94.36;99621.27;105841;1314;22173;-88
2022/12/18 06:39:06;;;;;;;94.70;73.00;;;;;;;-5.56;94.51;99627.17;105267;1322;22107;-87
2022/12/18 06:41:35;;;;;;;90.80;71.70;;;;;;;-5.56;94.45;99629.78;105445;1321;22277;-87
2022/12/18 06:44:03;;;;;;;94.80;69.10;;;;;;;-5.55;94.65;99631.86;106010;1314;23015;-86
2022/12/18 06:46:32;;;;;;;77.90;61.70;;;;;;;-5.51;94.66;99628.83;105249;1321;22379;-84
2022/12/18 06:49:00;;;;;;;89.30;66.50;;;;;;;-5.48;94.47;99636.50;105268;1321;22081;-85
2022/12/18 06:51:28;;;;;;;71.00;63.30;;;;;;;-5.43;94.37;99634.80;105623;1314;22252;-87
2022/12/18 06:53:56;;;;;;;78.00;66.60;;;;;;;-5.43;94.53;99640.48;105258;1321;22210;-84
2022/12/18 06:56:24;;;;;;;91.70;69.50;;;;;;;-5.41;94.70;99642.00;105270;1318;22346;-85
2022/12/18 06:58:52;;;;;;;86.80;71.30;;;;;;;-5.40;94.67;99645.00;105479;1321;22202;-85
2022/12/18 07:01:20;;;;;;;84.70;71.00;;;;;;;-5.39;94.77;99646.17;105773;1314;22258;-85
2022/12/18 07:03:56;;;;;;;75.60;64.90;;;;;;;-5.35;94.63;99652.96;105581;1321;22211;-85
2022/12/18 07:06:25;;;;;;;81.90;68.40;;;;;;;-5.29;94.81;99655.85;105568;1321;22326;-84
2022/12/18 07:08:53;;;;;;;76.40;66.80;;;;;;;-5.22;94.52;99662.01;105096;1321;22886;-85
2022/12/18 07:11:21;;;;;;;95.10;73.30;;;;;;;-5.14;94.79;99666.77;105308;1321;22558;-85
2022/12/18 07:13:49;;;;;;;92.60;72.10;;;;;;;-5.08;94.77;99672.29;105273;1321;22211;-85
2022/12/18 07:16:19;;;;;;;85.80;71.00;;;;;;;-5.06;94.63;99668.56;105283;1313;22306;-85
2022/12/18 07:18:55;;;;;;;90.70;71.90;;;;;;;-5.02;94.99;99672.00;105211;1321;22238;-84
2022/12/18 07:21:24;;;;;;;81.00;66.20;;;;;;;-4.99;94.86;99675.66;105952;1306;22210;-84
2022/12/18 07:23:52;;;;;;;84.90;67.30;;;;;;;-4.92;95.05;99679.45;105819;1312;22240;-83
2022/12/18 07:26:21;;;;;;;80.10;66.60;;;;;;;-4.84;94.71;99685.52;105408;1322;22164;-84
2022/12/18 07:28:50;;;;;;;85.60;68.60;;;;;;;-4.82;94.53;99692.96;105249;1321;22278;-84
2022/12/18 07:31:20;;;;;;;79.20;67.60;;;;;;;-4.79;94.62;99692.90;105375;1321;22241;-84
2022/12/18 07:33:50;;;;;;;96.30;74.30;;;;;;;-4.73;94.75;99696.36;105269;1321;168566;-85
2022/12/18 07:36:19;;;;;;;97.30;72.30;;;;;;;-4.71;94.85;99703.86;105083;1321;22199;-84
2022/12/18 07:38:49;;;;;;;89.20;70.00;;;;;;;-4.71;94.48;99706.77;105771;1299;22084;-85
2022/12/18 07:41:17;;;;;;;71.50;60.60;;;;;;;-4.80;94.10;99713.60;105269;1321;22948;-85
2022/12/18 07:43:45;;;;;;;80.30;66.30;;;;;;;-4.83;94.20;99713.55;105501;1313;22458;-84
2022/12/18 07:46:15;;;;;;;75.70;65.20;;;;;;;-4.84;94.14;99718.41;105781;1314;22204;-85
2022/12/18 07:48:44;;;;;;;79.90;67.00;;;;;;;-4.84;94.16;99715.65;105899;1305;22972;-85
2022/12/18 07:51:18;;;;;;;78.60;67.30;;;;;;;-4.87;94.03;99718.02;105503;1321;22991;-85
2022/12/18 07:53:47;;;;;;;85.70;69.50;;;;;;;-4.88;94.23;99722.71;105620;1306;22053;-85
2022/12/18 07:56:20;;;;;;;74.00;63.30;;;;;;;-4.90;94.00;99719.36;105668;1314;22151;-85
2022/12/18 07:58:58;;;;;;;84.80;66.10;;;;;;;-4.85;94.40;99714.89;105324;1321;22256;-85
2022/12/18 08:01:27;;;;;;;87.60;71.80;;;;;;;-4.68;94.91;99713.70;105380;1317;22930;-85
2022/12/18 08:03:57;;;;;;;83.90;71.80;;;;;;;-4.53;94.85;99711.91;105287;1321;22220;-85
2022/12/18 08:06:25;;;;;;;93.60;75.10;;;;;;;-4.42;94.64;99716.60;105497;1316;22186;-85
2022/12/18 08:08:55;;;;;;;96.40;73.80;;;;;;;-4.30;94.90;99712.45;105469;1321;22209;-85
2022/12/18 08:11:25;;;;;;;93.60;73.10;;;;;;;-4.23;94.65;99709.38;105508;1321;22206;-85
2022/12/18 08:13:53;;;;;;;104.30;74.80;;;;;;;-4.19;94.35;99711.11;105392;1321;22216;-85
2022/12/18 08:16:23;;;;;;;121.40;78.90;;;;;;;-4.22;93.87;99717.15;105328;1321;22238;-86
2022/12/18 08:18:53;;;;;;;104.50;79.80;;;;;;;-4.26;93.91;99720.23;105064;1319;22264;-84
2022/12/18 08:21:28;;;;;;;88.40;70.40;;;;;;;-4.29;94.09;99719.88;105293;1321;22794;-85
2022/12/18 08:23:58;;;;;;;114.80;78.10;;;;;;;-4.23;94.15;99720.67;105228;1321;22260;-85
2022/12/18 08:26:29;;;;;;;90.80;73.30;;;;;;;-4.19;93.98;99725.81;105255;1321;22835;-83
2022/12/18 08:28:58;;;;;;;95.50;74.90;;;;;;;-4.16;93.92;99729.21;105014;1321;22875;-84
2022/12/18 08:31:28;;;;;;;103.10;76.20;;;;;;;-4.15;93.82;99729.09;105575;1321;22542;-85
2022/12/18 08:33:57;;;;;;;91.80;72.20;;;;;;;-4.12;94.08;99732.48;105278;1322;22894;-85
2022/12/18 08:36:25;;;;;;;83.10;70.30;;;;;;;-4.06;94.41;99728.73;105733;1307;22173;-85
2022/12/18 08:38:54;;;;;;;84.50;71.40;;;;;;;-4.03;94.29;99728.01;105336;1321;22184;-84
2022/12/18 08:41:22;;;;;;;93.20;69.60;;;;;;;-3.96;94.32;99731.19;105277;1322;22216;-86
2022/12/18 08:46:39;;;;;;;82.60;65.00;;;;;;;-3.85;93.73;99733.04;105272;1322;22147;-85
2022/12/18 08:49:09;;;;;;;89.80;68.70;;;;;;;-3.82;93.39;99735.48;105304;1321;22202;-87
2022/12/18 08:51:38;;;;;;;76.60;66.70;;;;;;;-3.79;93.54;99743.25;105559;1321;22991;-85
2022/12/18 08:54:06;;;;;;;78.30;67.00;;;;;;;-3.73;93.56;99748.38;105388;1321;22284;-85
2022/12/18 08:56:34;;;;;;;101.90;75.40;;;;;;;-3.74;92.91;99752.71;105548;1321;22102;-85
2022/12/18 08:59:04;;;;;;;97.80;74.10;;;;;;;-3.75;93.42;99753.38;105407;1321;22210;-85
2022/12/18 09:01:32;;;;;;;91.10;71.50;;;;;;;-3.75;92.83;99762.30;105289;1321;22214;-85
2022/12/18 09:04:00;;;;;;;73.80;61.50;;;;;;;-3.80;92.18;99767.30;105461;1321;22226;-85
2022/12/18 09:06:28;;;;;;;71.90;59.50;;;;;;;-3.83;92.22;99769.65;105529;1313;23023;-85
2022/12/18 09:08:57;;;;;;;81.80;64.30;;;;;;;-3.85;91.87;99772.73;105954;1309;22121;-86
2022/12/18 09:11:28;;;;;;;80.70;67.00;;;;;;;-3.78;92.72;99774.02;105552;1321;22850;-85
2022/12/18 09:13:57;;;;;;;83.30;65.50;;;;;;;-3.63;93.25;99773.23;105263;1322;22133;-85
2022/12/18 09:16:27;;;;;;;81.80;67.20;;;;;;;-3.54;93.01;99767.88;105403;1321;22221;-86
2022/12/18 09:19:00;;;;;;;83.50;65.10;;;;;;;-3.53;92.31;99771.44;105297;1321;22350;-85
2022/12/18 09:21:31;;;;;;;72.80;59.90;;;;;;;-3.58;91.11;99770.54;105404;1315;22291;-86
2022/12/18 09:24:04;;;;;;;69.50;62.00;;;;;;;-3.65;91.27;99774.14;105373;1322;22346;-85
2022/12/18 09:26:36;;;;;;;83.60;67.80;;;;;;;-3.63;90.94;99771.85;105527;1321;22859;-85
2022/12/18 09:29:06;;;;;;;65.90;57.50;;;;;;;-3.58;91.56;99777.39;105529;1321;22214;-85
2022/12/18 09:31:35;;;;;;;79.30;67.30;;;;;;;-3.54;91.10;99781.63;105554;1321;22242;-85
2022/12/18 09:34:03;;;;;;;87.80;70.40;;;;;;;-3.53;91.00;99783.63;105328;1321;22200;-86
2022/12/18 09:36:32;;;;;;;79.40;65.20;;;;;;;-3.53;89.62;99778.88;105567;1320;22263;-85
2022/12/18 09:39:00;;;;;;;70.40;61.30;;;;;;;-3.65;89.40;99782.38;105937;1314;22074;-84
2022/12/18 09:41:40;;;;;;;61.30;53.00;;;;;;;-3.64;89.85;99776.33;105934;1314;22218;-85
2022/12/18 09:44:32;;;;;;;65.10;57.90;;;;;;;-3.64;88.45;99775.48;105534;1321;22194;-85
2022/12/18 09:47:17;;;;;;;54.90;48.70;;;;;;;-3.53;89.87;99771.11;105884;1313;22753;-84
2022/12/18 09:49:49;;;;;;;56.40;50.30;;;;;;;-3.24;90.64;99780.27;105286;1316;22098;-85
2022/12/18 09:52:41;;;;;;;55.70;48.10;;;;;;;-3.06;89.54;99781.58;105272;1321;22274;-85
2022/12/18 09:55:28;;;;;;;58.60;52.10;;;;;;;-2.94;89.48;99780.95;105325;1321;22268;-85
2022/12/18 09:58:18;;;;;;;61.60;54.80;;;;;;;-2.82;89.90;99784.11;105821;1314;22187;-84
2022/12/18 10:00:46;;;;;;;66.10;58.00;;;;;;;-2.68;90.72;99790.84;105284;1321;22257;-86
2022/12/18 10:03:16;;;;;;;54.90;49.10;;;;;;;-2.59;89.32;99794.25;105930;1306;22160;-85
2022/12/18 10:05:50;;;;;;;58.40;52.00;;;;;;;-2.62;88.90;99798.08;105304;1321;22183;-83
2022/12/18 10:08:24;;;;;;;63.40;54.10;;;;;;;-2.71;88.34;99796.30;105499;1307;22283;-84
2022/12/18 10:10:57;;;;;;;55.00;48.90;;;;;;;-2.84;87.52;99795.52;105399;1322;22714;-84
2022/12/18 10:13:34;;;;;;;57.50;50.40;;;;;;;-2.81;89.23;99794.70;105616;1314;22249;-85
2022/12/18 10:16:15;;;;;;;52.40;46.50;;;;;;;-2.61;89.87;99792.73;105379;1321;22224;-84
2022/12/18 10:19:21;;;;;;;51.20;45.70;;;;;;;-2.58;88.78;99792.53;105362;1321;22761;-90
2022/12/18 10:22:02;;;;;;;55.10;48.70;;;;;;;-2.49;89.38;99788.89;105341;1321;22963;-85
2022/12/18 10:24:59;;;;;;;63.00;56.70;;;;;;;-2.35;88.73;99783.02;105822;1321;22169;-85
2022/12/18 10:27:28;;;;;;;120.60;106.10;;;;;;;-2.50;87.81;99788.49;106467;1298;22066;-83
2022/12/18 10:29:57;;;;;;;68.30;61.90;;;;;;;-2.50;88.28;99784.80;106490;1308;22254;-85
2022/12/18 10:32:29;;;;;;;47.50;42.40;;;;;;;-2.53;88.23;99784.11;106024;1307;22163;-84
2022/12/18 10:34:58;;;;;;;44.50;40.00;;;;;;;-2.53;88.12;99780.94;106054;1306;22832;-84
2022/12/18 10:37:29;;;;;;;55.00;49.50;;;;;;;-2.48;88.31;99779.91;105631;1321;22841;-91
2022/12/18 10:40:11;;;;;;;53.70;48.10;;;;;;;-2.50;87.90;99780.40;105456;1321;22775;-85
2022/12/18 10:43:02;;;;;;;56.30;50.10;;;;;;;-2.61;87.59;99774.92;105417;1320;22102;-85
2022/12/18 10:45:31;;;;;;;50.60;45.20;;;;;;;-2.59;87.96;99778.75;105412;1321;22852;-85
2022/12/18 10:47:59;;;;;;;52.90;47.30;;;;;;;-2.61;87.19;99774.66;105519;1321;22242;-86
2022/12/18 10:50:36;;;;;;;51.70;46.00;;;;;;;-2.73;87.19;99771.48;105368;1321;22146;-85
2022/12/18 10:53:27;;;;;;;52.40;46.70;;;;;;;-2.73;87.89;99769.44;105674;1314;22249;-85
2022/12/18 10:55:58;;;;;;;53.40;47.10;;;;;;;-2.74;87.65;99764.75;105472;1321;22285;-86
2022/12/18 10:58:31;;;;;;;50.70;45.30;;;;;;;-2.74;87.74;99763.56;105563;1321;22687;-85
2022/12/18 11:01:06;;;;;;;46.90;40.80;;;;;;;-2.74;87.17;99759.80;105968;1312;22272;-83
2022/12/18 11:03:41;;;;;;;60.20;53.60;;;;;;;-2.81;86.41;99758.75;105341;1322;22424;-85
2022/12/18 11:06:18;;;;;;;52.50;46.60;;;;;;;-2.76;87.43;99758.38;105590;1321;22274;-84
2022/12/18 11:09:18;;;;;;;50.30;45.00;;;;;;;-2.65;87.29;99751.67;105295;1321;22093;-85
2022/12/18 11:11:52;;;;;;;53.30;47.60;;;;;;;-2.54;87.37;99750.06;105590;1321;22824;-86
2022/12/18 11:14:26;;;;;;;58.30;51.90;;;;;;;-2.47;87.49;99749.15;105773;1314;22110;-86
2022/12/18 11:16:56;;;;;;;51.70;46.30;;;;;;;-2.35;87.66;99746.39;105836;1309;22912;-85
2022/12/18 11:19:43;;;;;;;52.60;47.00;;;;;;;-2.31;86.69;99746.11;105341;1321;23046;-86
2022/12/18 11:22:26;;;;;;;52.70;47.00;;;;;;;-2.37;86.30;99739.56;105879;1313;22956;-86
2022/12/18 11:25:17;;;;;;;52.70;45.70;;;;;;;-2.43;85.54;99735.70;105477;1321;22218;-86
2022/12/18 11:28:04;;;;;;;64.30;57.50;;;;;;;-2.39;86.83;99738.02;105968;1313;22071;-85
2022/12/18 11:30:34;;;;;;;53.30;47.70;;;;;;;-2.24;86.77;99733.90;105578;1313;22186;-84
2022/12/18 11:33:29;;;;;;;50.90;45.40;;;;;;;-1.98;86.17;99737.83;105383;1316;22887;-85
2022/12/18 11:36:03;;;;;;;55.60;49.90;;;;;;;-1.73;85.66;99731.39;105524;1321;22210;-87
2022/12/18 11:38:38;;;;;;;52.80;46.60;;;;;;;-1.49;85.09;99733.52;105308;1321;22271;-85
2022/12/18 11:41:16;;;;;;;51.00;44.80;;;;;;;-1.31;85.96;99733.13;105420;1321;22226;-85
2022/12/18 11:43:55;;;;;;;47.90;42.90;;;;;;;-0.99;86.94;99730.71;105309;1310;22826;-85